sensor_id;sensor_type;location;lat;lon;timestamp;temperature;humidity
16263;DHT22;8239;48.594;8.598;2023-10-19T00:02:10;10.80;99.90
16263;DHT22;8239;48.594;8.598;2023-10-19T00:04:40;10.80;99.90
16263;DHT22;8239;48.594;8.598;2023-10-19T00:07:06;10.90;99.90
16263;DHT22;8239;48.594;8.598;2023-10-19T00:09:41;10.90;99.90
16263;DHT22;8239;48.594;8.598;2023-10-19T00:12:10;11.00;99.90
16263;DHT22;8239;48.594;8.598;2023-10-19T00:14:38;11.00;99.90
16263;DHT22;8239;48.594;8.598;2023-10-19T00:17:05;11.00;99.90
16263;DHT22;8239;48.594;8.598;2023-10-19T00:19:36;11.00;99.90
16263;DHT22;8239;48.594;8.598;2023-10-19T00:22:05;11.10;99.90
16263;DHT22;8239;48.594;8.598;2023-10-19T00:24:36;11.10;99.90
16263;DHT22;8239;48.594;8.598;2023-10-19T00:27:02;11.10;99.90
16263;DHT22;8239;48.594;8.598;2023-10-19T00:29:41;11.10;99.90
16263;DHT22;8239;48.594;8.598;2023-10-19T00:32:12;11.10;99.90
16263;DHT22;8239;48.594;8.598;2023-10-19T00:34:40;11.10;99.90
16263;DHT22;8239;48.594;8.598;2023-10-19T00:37:08;11.10;99.90
16263;DHT22;8239;48.594;8.598;2023-10-19T00:39:36;11.10;99.90
16263;DHT22;8239;48.594;8.598;2023-10-19T00:42:09;11.10;99.90
16263;DHT22;8239;48.594;8.598;2023-10-19T00:44:41;11.10;99.90
16263;DHT22;8239;48.594;8.598;2023-10-19T00:47:09;11.10;99.90
16263;DHT22;8239;48.594;8.598;2023-10-19T00:49:40;11.10;99.90
16263;DHT22;8239;48.594;8.598;2023-10-19T00:52:10;11.10;99.90
16263;DHT22;8239;48.594;8.598;2023-10-19T00:54:45;11.20;99.90
16263;DHT22;8239;48.594;8.598;2023-10-19T00:57:18;11.20;99.90
16263;DHT22;8239;48.594;8.598;2023-10-19T00:59:48;11.20;99.90
16263;DHT22;8239;48.594;8.598;2023-10-19T01:02:18;11.10;99.90
16263;DHT22;8239;48.594;8.598;2023-10-19T01:04:50;11.10;99.90
16263;DHT22;8239;48.594;8.598;2023-10-19T01:07:22;11.10;99.90
16263;DHT22;8239;48.594;8.598;2023-10-19T01:09:53;11.10;99.90
16263;DHT22;8239;48.594;8.598;2023-10-19T01:12:22;11.10;99.90
16263;DHT22;8239;48.594;8.598;2023-10-19T01:15:05;11.10;99.90
16263;DHT22;8239;48.594;8.598;2023-10-19T01:17:33;11.10;99.90
16263;DHT22;8239;48.594;8.598;2023-10-19T01:20:07;11.10;99.90
16263;DHT22;8239;48.594;8.598;2023-10-19T01:22:57;11.00;99.90
16263;DHT22;8239;48.594;8.598;2023-10-19T01:25:42;10.90;99.90
16263;DHT22;8239;48.594;8.598;2023-10-19T01:28:15;10.80;99.90
16263;DHT22;8239;48.594;8.598;2023-10-19T01:30:43;10.80;99.90
16263;DHT22;8239;48.594;8.598;2023-10-19T01:33:11;10.70;99.90
16263;DHT22;8239;48.594;8.598;2023-10-19T01:35:41;10.70;99.90
16263;DHT22;8239;48.594;8.598;2023-10-19T01:38:27;10.70;99.90
16263;DHT22;8239;48.594;8.598;2023-10-19T01:40:56;10.60;99.90
16263;DHT22;8239;48.594;8.598;2023-10-19T01:43:25;10.60;99.90
16263;DHT22;8239;48.594;8.598;2023-10-19T01:45:52;10.50;99.90
16263;DHT22;8239;48.594;8.598;2023-10-19T01:48:20;10.50;99.90
16263;DHT22;8239;48.594;8.598;2023-10-19T01:50:48;10.40;99.90
16263;DHT22;8239;48.594;8.598;2023-10-19T01:53:17;10.40;99.90
16263;DHT22;8239;48.594;8.598;2023-10-19T01:55:46;10.30;99.90
16263;DHT22;8239;48.594;8.598;2023-10-19T01:58:18;10.30;99.90
16263;DHT22;8239;48.594;8.598;2023-10-19T02:00:44;10.30;99.90
16263;DHT22;8239;48.594;8.598;2023-10-19T02:03:10;10.30;99.90
16263;DHT22;8239;48.594;8.598;2023-10-19T02:05:36;10.30;99.90
16263;DHT22;8239;48.594;8.598;2023-10-19T02:08:07;10.20;99.90
16263;DHT22;8239;48.594;8.598;2023-10-19T02:10:34;10.20;99.90
16263;DHT22;8239;48.594;8.598;2023-10-19T02:13:02;10.10;99.90
16263;DHT22;8239;48.594;8.598;2023-10-19T02:15:33;10.10;99.90
16263;DHT22;8239;48.594;8.598;2023-10-19T02:18:00;10.00;99.90
16263;DHT22;8239;48.594;8.598;2023-10-19T02:20:28;10.00;99.90
16263;DHT22;8239;48.594;8.598;2023-10-19T02:22:54;9.90;99.90
16263;DHT22;8239;48.594;8.598;2023-10-19T02:25:23;9.80;99.90
16263;DHT22;8239;48.594;8.598;2023-10-19T02:27:51;9.70;99.90
16263;DHT22;8239;48.594;8.598;2023-10-19T02:30:19;9.60;99.90
16263;DHT22;8239;48.594;8.598;2023-10-19T02:32:45;9.60;99.90
16263;DHT22;8239;48.594;8.598;2023-10-19T02:35:14;9.50;99.90
16263;DHT22;8239;48.594;8.598;2023-10-19T02:37:40;9.40;99.90
16263;DHT22;8239;48.594;8.598;2023-10-19T02:40:08;9.40;99.90
16263;DHT22;8239;48.594;8.598;2023-10-19T02:42:45;9.30;99.90
16263;DHT22;8239;48.594;8.598;2023-10-19T02:45:15;9.30;99.90
16263;DHT22;8239;48.594;8.598;2023-10-19T02:47:44;9.20;99.90
16263;DHT22;8239;48.594;8.598;2023-10-19T02:50:11;9.20;99.90
16263;DHT22;8239;48.594;8.598;2023-10-19T02:52:39;9.20;99.90
16263;DHT22;8239;48.594;8.598;2023-10-19T02:55:08;9.30;99.90
16263;DHT22;8239;48.594;8.598;2023-10-19T02:57:35;9.30;99.90
16263;DHT22;8239;48.594;8.598;2023-10-19T03:00:04;9.40;99.90
16263;DHT22;8239;48.594;8.598;2023-10-19T03:02:36;9.40;99.90
16263;DHT22;8239;48.594;8.598;2023-10-19T03:05:06;9.40;99.90
16263;DHT22;8239;48.594;8.598;2023-10-19T03:07:39;9.30;99.90
16263;DHT22;8239;48.594;8.598;2023-10-19T03:10:07;9.20;99.90
16263;DHT22;8239;48.594;8.598;2023-10-19T03:12:48;9.20;99.90
16263;DHT22;8239;48.594;8.598;2023-10-19T03:15:16;9.10;99.90
16263;DHT22;8239;48.594;8.598;2023-10-19T03:17:43;9.00;99.90
16263;DHT22;8239;48.594;8.598;2023-10-19T03:20:11;8.90;99.90
16263;DHT22;8239;48.594;8.598;2023-10-19T03:22:39;8.80;99.90
16263;DHT22;8239;48.594;8.598;2023-10-19T03:25:07;8.70;99.90
16263;DHT22;8239;48.594;8.598;2023-10-19T03:28:01;8.60;99.90
16263;DHT22;8239;48.594;8.598;2023-10-19T03:30:34;8.60;99.90
16263;DHT22;8239;48.594;8.598;2023-10-19T03:33:05;8.60;99.90
16263;DHT22;8239;48.594;8.598;2023-10-19T03:35:35;8.60;99.90
16263;DHT22;8239;48.594;8.598;2023-10-19T03:38:03;8.70;99.90
16263;DHT22;8239;48.594;8.598;2023-10-19T03:40:39;8.80;99.90
16263;DHT22;8239;48.594;8.598;2023-10-19T03:43:07;8.80;99.90
16263;DHT22;8239;48.594;8.598;2023-10-19T03:45:43;8.80;99.90
16263;DHT22;8239;48.594;8.598;2023-10-19T03:48:18;8.70;99.90
16263;DHT22;8239;48.594;8.598;2023-10-19T03:50:54;8.60;99.90
16263;DHT22;8239;48.594;8.598;2023-10-19T03:53:21;8.50;99.90
16263;DHT22;8239;48.594;8.598;2023-10-19T03:55:49;8.40;99.90
16263;DHT22;8239;48.594;8.598;2023-10-19T03:58:18;8.30;99.90
16263;DHT22;8239;48.594;8.598;2023-10-19T04:00:46;8.20;99.90
16263;DHT22;8239;48.594;8.598;2023-10-19T04:03:14;8.20;99.90
16263;DHT22;8239;48.594;8.598;2023-10-19T04:05:42;8.10;99.90
16263;DHT22;8239;48.594;8.598;2023-10-19T04:08:13;8.20;99.90
16263;DHT22;8239;48.594;8.598;2023-10-19T04:10:45;8.30;99.90
16263;DHT22;8239;48.594;8.598;2023-10-19T04:13:33;8.30;99.90
16263;DHT22;8239;48.594;8.598;2023-10-19T04:16:00;8.30;99.90
16263;DHT22;8239;48.594;8.598;2023-10-19T04:18:27;8.30;99.90
16263;DHT22;8239;48.594;8.598;2023-10-19T04:20:54;8.40;99.90
16263;DHT22;8239;48.594;8.598;2023-10-19T04:23:25;8.40;99.90
16263;DHT22;8239;48.594;8.598;2023-10-19T04:25:54;8.40;99.90
16263;DHT22;8239;48.594;8.598;2023-10-19T04:28:23;8.50;99.90
16263;DHT22;8239;48.594;8.598;2023-10-19T04:30:57;8.50;99.90
16263;DHT22;8239;48.594;8.598;2023-10-19T04:33:28;8.60;99.90
16263;DHT22;8239;48.594;8.598;2023-10-19T04:35:55;8.60;99.90
16263;DHT22;8239;48.594;8.598;2023-10-19T04:38:27;8.60;99.90
16263;DHT22;8239;48.594;8.598;2023-10-19T04:41:04;8.60;99.90
16263;DHT22;8239;48.594;8.598;2023-10-19T04:43:34;8.60;99.90
16263;DHT22;8239;48.594;8.598;2023-10-19T04:46:05;8.60;99.90
16263;DHT22;8239;48.594;8.598;2023-10-19T04:48:34;8.60;99.90
16263;DHT22;8239;48.594;8.598;2023-10-19T04:51:02;8.80;99.90
16263;DHT22;8239;48.594;8.598;2023-10-19T04:53:32;9.00;99.90
16263;DHT22;8239;48.594;8.598;2023-10-19T04:55:59;9.10;99.90
16263;DHT22;8239;48.594;8.598;2023-10-19T04:58:27;9.20;99.90
16263;DHT22;8239;48.594;8.598;2023-10-19T05:00:54;9.20;99.90
16263;DHT22;8239;48.594;8.598;2023-10-19T05:03:24;9.20;99.90
16263;DHT22;8239;48.594;8.598;2023-10-19T05:05:51;9.30;99.90
16263;DHT22;8239;48.594;8.598;2023-10-19T05:08:18;9.40;99.90
16263;DHT22;8239;48.594;8.598;2023-10-19T05:10:47;9.40;99.90
16263;DHT22;8239;48.594;8.598;2023-10-19T05:13:14;9.30;99.90
16263;DHT22;8239;48.594;8.598;2023-10-19T05:15:41;9.20;99.90
16263;DHT22;8239;48.594;8.598;2023-10-19T05:18:09;9.10;99.90
16263;DHT22;8239;48.594;8.598;2023-10-19T05:20:37;9.10;99.90
16263;DHT22;8239;48.594;8.598;2023-10-19T05:23:06;9.10;99.90
16263;DHT22;8239;48.594;8.598;2023-10-19T05:25:33;9.20;99.90
16263;DHT22;8239;48.594;8.598;2023-10-19T05:28:04;9.40;99.90
16263;DHT22;8239;48.594;8.598;2023-10-19T05:30:30;9.60;99.90
16263;DHT22;8239;48.594;8.598;2023-10-19T05:32:58;9.80;99.90
16263;DHT22;8239;48.594;8.598;2023-10-19T05:35:28;10.00;99.90
16263;DHT22;8239;48.594;8.598;2023-10-19T05:37:55;10.20;99.90
16263;DHT22;8239;48.594;8.598;2023-10-19T05:40:23;10.40;99.90
16263;DHT22;8239;48.594;8.598;2023-10-19T05:42:55;10.50;99.90
16263;DHT22;8239;48.594;8.598;2023-10-19T05:45:23;10.60;99.90
16263;DHT22;8239;48.594;8.598;2023-10-19T05:47:52;10.70;99.90
16263;DHT22;8239;48.594;8.598;2023-10-19T05:50:19;10.80;99.90
16263;DHT22;8239;48.594;8.598;2023-10-19T05:52:46;10.80;99.90
16263;DHT22;8239;48.594;8.598;2023-10-19T05:55:14;10.80;99.90
16263;DHT22;8239;48.594;8.598;2023-10-19T05:57:41;10.80;99.90
16263;DHT22;8239;48.594;8.598;2023-10-19T06:00:09;10.90;99.90
16263;DHT22;8239;48.594;8.598;2023-10-19T06:02:45;10.90;99.90
16263;DHT22;8239;48.594;8.598;2023-10-19T06:05:13;11.00;99.90
16263;DHT22;8239;48.594;8.598;2023-10-19T06:07:41;11.00;99.90
16263;DHT22;8239;48.594;8.598;2023-10-19T06:10:11;11.10;99.90
16263;DHT22;8239;48.594;8.598;2023-10-19T06:12:41;11.20;99.90
16263;DHT22;8239;48.594;8.598;2023-10-19T06:15:09;11.30;99.90
16263;DHT22;8239;48.594;8.598;2023-10-19T06:17:38;11.40;99.90
16263;DHT22;8239;48.594;8.598;2023-10-19T06:20:08;11.40;99.90
16263;DHT22;8239;48.594;8.598;2023-10-19T06:22:45;11.40;99.90
16263;DHT22;8239;48.594;8.598;2023-10-19T06:25:16;11.40;99.90
16263;DHT22;8239;48.594;8.598;2023-10-19T06:27:44;11.40;99.90
16263;DHT22;8239;48.594;8.598;2023-10-19T06:30:11;11.30;99.90
16263;DHT22;8239;48.594;8.598;2023-10-19T06:32:44;11.30;99.90
16263;DHT22;8239;48.594;8.598;2023-10-19T06:35:12;11.20;99.90
16263;DHT22;8239;48.594;8.598;2023-10-19T06:37:39;11.20;99.90
16263;DHT22;8239;48.594;8.598;2023-10-19T06:40:07;11.00;99.90
16263;DHT22;8239;48.594;8.598;2023-10-19T06:42:36;10.90;99.90
16263;DHT22;8239;48.594;8.598;2023-10-19T06:45:03;10.90;99.90
16263;DHT22;8239;48.594;8.598;2023-10-19T06:47:30;10.80;99.90
16263;DHT22;8239;48.594;8.598;2023-10-19T06:49:57;10.90;99.90
16263;DHT22;8239;48.594;8.598;2023-10-19T06:52:29;10.90;99.90
16263;DHT22;8239;48.594;8.598;2023-10-19T06:54:58;10.90;99.90
16263;DHT22;8239;48.594;8.598;2023-10-19T06:57:25;10.90;99.90
16263;DHT22;8239;48.594;8.598;2023-10-19T06:59:53;10.90;99.90
16263;DHT22;8239;48.594;8.598;2023-10-19T07:02:20;10.90;99.90
16263;DHT22;8239;48.594;8.598;2023-10-19T07:04:47;10.90;99.90
16263;DHT22;8239;48.594;8.598;2023-10-19T07:07:14;10.90;99.90
16263;DHT22;8239;48.594;8.598;2023-10-19T07:09:42;11.00;99.90
16263;DHT22;8239;48.594;8.598;2023-10-19T07:12:09;11.00;99.90
16263;DHT22;8239;48.594;8.598;2023-10-19T07:14:36;11.10;99.90
16263;DHT22;8239;48.594;8.598;2023-10-19T07:17:03;11.30;99.90
16263;DHT22;8239;48.594;8.598;2023-10-19T07:19:31;11.40;99.90
16263;DHT22;8239;48.594;8.598;2023-10-19T07:21:58;11.70;99.90
16263;DHT22;8239;48.594;8.598;2023-10-19T07:24:25;11.80;99.90
16263;DHT22;8239;48.594;8.598;2023-10-19T07:26:53;12.00;99.90
16263;DHT22;8239;48.594;8.598;2023-10-19T07:29:30;12.20;99.90
16263;DHT22;8239;48.594;8.598;2023-10-19T07:31:59;12.40;99.90
16263;DHT22;8239;48.594;8.598;2023-10-19T07:34:26;12.60;99.90
16263;DHT22;8239;48.594;8.598;2023-10-19T07:36:55;12.80;99.90
16263;DHT22;8239;48.594;8.598;2023-10-19T07:39:24;13.10;99.90
16263;DHT22;8239;48.594;8.598;2023-10-19T07:41:53;13.30;99.90
16263;DHT22;8239;48.594;8.598;2023-10-19T07:44:20;13.60;99.90
16263;DHT22;8239;48.594;8.598;2023-10-19T07:46:47;13.80;99.90
16263;DHT22;8239;48.594;8.598;2023-10-19T07:49:14;14.40;99.90
16263;DHT22;8239;48.594;8.598;2023-10-19T07:51:45;15.40;99.90
16263;DHT22;8239;48.594;8.598;2023-10-19T07:54:12;16.70;99.90
16263;DHT22;8239;48.594;8.598;2023-10-19T07:56:39;18.00;99.90
16263;DHT22;8239;48.594;8.598;2023-10-19T07:59:08;19.10;99.90
16263;DHT22;8239;48.594;8.598;2023-10-19T08:01:35;19.70;99.90
16263;DHT22;8239;48.594;8.598;2023-10-19T08:04:02;19.80;99.90
16263;DHT22;8239;48.594;8.598;2023-10-19T08:06:29;19.70;99.90
16263;DHT22;8239;48.594;8.598;2023-10-19T08:08:57;19.60;99.90
16263;DHT22;8239;48.594;8.598;2023-10-19T08:11:25;19.20;99.90
16263;DHT22;8239;48.594;8.598;2023-10-19T08:13:51;19.00;99.90
16263;DHT22;8239;48.594;8.598;2023-10-19T08:16:19;19.10;99.90
16263;DHT22;8239;48.594;8.598;2023-10-19T08:18:46;19.30;99.90
16263;DHT22;8239;48.594;8.598;2023-10-19T08:21:14;19.70;99.90
16263;DHT22;8239;48.594;8.598;2023-10-19T08:23:41;20.20;99.90
16263;DHT22;8239;48.594;8.598;2023-10-19T08:26:10;20.50;99.90
16263;DHT22;8239;48.594;8.598;2023-10-19T08:28:37;20.50;99.90
16263;DHT22;8239;48.594;8.598;2023-10-19T08:31:08;20.40;99.90
16263;DHT22;8239;48.594;8.598;2023-10-19T08:33:37;20.30;99.90
16263;DHT22;8239;48.594;8.598;2023-10-19T08:36:15;20.20;99.90
16263;DHT22;8239;48.594;8.598;2023-10-19T08:38:43;20.00;99.90
16263;DHT22;8239;48.594;8.598;2023-10-19T08:41:10;19.80;99.90
16263;DHT22;8239;48.594;8.598;2023-10-19T08:43:37;19.40;99.90
16263;DHT22;8239;48.594;8.598;2023-10-19T08:46:06;19.10;99.90
16263;DHT22;8239;48.594;8.598;2023-10-19T08:48:34;18.90;99.90
16263;DHT22;8239;48.594;8.598;2023-10-19T08:51:09;18.80;99.90
16263;DHT22;8239;48.594;8.598;2023-10-19T08:53:37;18.70;99.90
16263;DHT22;8239;48.594;8.598;2023-10-19T08:56:07;18.70;99.90
16263;DHT22;8239;48.594;8.598;2023-10-19T08:58:34;18.80;99.90
16263;DHT22;8239;48.594;8.598;2023-10-19T09:01:01;19.10;99.90
16263;DHT22;8239;48.594;8.598;2023-10-19T09:03:35;19.50;99.90
16263;DHT22;8239;48.594;8.598;2023-10-19T09:06:04;20.00;99.90
16263;DHT22;8239;48.594;8.598;2023-10-19T09:08:31;20.60;99.90
16263;DHT22;8239;48.594;8.598;2023-10-19T09:11:06;21.10;99.90
16263;DHT22;8239;48.594;8.598;2023-10-19T09:13:43;21.30;99.90
16263;DHT22;8239;48.594;8.598;2023-10-19T09:16:10;21.20;98.30
16263;DHT22;8239;48.594;8.598;2023-10-19T09:18:37;21.00;97.90
16263;DHT22;8239;48.594;8.598;2023-10-19T09:21:07;20.70;98.60
16263;DHT22;8239;48.594;8.598;2023-10-19T09:23:37;20.30;99.50
16263;DHT22;8239;48.594;8.598;2023-10-19T09:26:05;20.00;99.70
16263;DHT22;8239;48.594;8.598;2023-10-19T09:28:35;19.80;98.80
16263;DHT22;8239;48.594;8.598;2023-10-19T09:31:02;19.60;98.30
16263;DHT22;8239;48.594;8.598;2023-10-19T09:33:32;19.30;98.70
16263;DHT22;8239;48.594;8.598;2023-10-19T09:36:00;19.10;99.50
16263;DHT22;8239;48.594;8.598;2023-10-19T09:38:31;18.90;99.70
16263;DHT22;8239;48.594;8.598;2023-10-19T09:40:59;18.80;99.90
16263;DHT22;8239;48.594;8.598;2023-10-19T09:43:34;18.50;99.90
16263;DHT22;8239;48.594;8.598;2023-10-19T09:46:06;18.40;99.90
16263;DHT22;8239;48.594;8.598;2023-10-19T09:48:39;18.10;99.90
16263;DHT22;8239;48.594;8.598;2023-10-19T09:51:08;17.80;99.90
16263;DHT22;8239;48.594;8.598;2023-10-19T09:53:38;17.50;99.90
16263;DHT22;8239;48.594;8.598;2023-10-19T09:56:08;17.20;99.90
16263;DHT22;8239;48.594;8.598;2023-10-19T09:58:44;17.00;99.90
16263;DHT22;8239;48.594;8.598;2023-10-19T10:01:11;16.80;99.90
16263;DHT22;8239;48.594;8.598;2023-10-19T10:03:48;16.70;99.90
16263;DHT22;8239;48.594;8.598;2023-10-19T10:06:26;16.60;99.90
16263;DHT22;8239;48.594;8.598;2023-10-19T10:08:55;16.60;99.90
16263;DHT22;8239;48.594;8.598;2023-10-19T10:11:24;16.60;99.90
16263;DHT22;8239;48.594;8.598;2023-10-19T10:13:52;16.70;99.90
16263;DHT22;8239;48.594;8.598;2023-10-19T10:16:22;16.80;99.90
16263;DHT22;8239;48.594;8.598;2023-10-19T10:18:51;16.90;99.90
16263;DHT22;8239;48.594;8.598;2023-10-19T10:21:22;16.90;99.90
16263;DHT22;8239;48.594;8.598;2023-10-19T10:23:51;16.90;99.90
16263;DHT22;8239;48.594;8.598;2023-10-19T10:26:22;16.80;99.90
16263;DHT22;8239;48.594;8.598;2023-10-19T10:29:11;16.70;99.90
16263;DHT22;8239;48.594;8.598;2023-10-19T10:31:43;16.50;99.90
16263;DHT22;8239;48.594;8.598;2023-10-19T10:34:12;16.30;99.90
16263;DHT22;8239;48.594;8.598;2023-10-19T10:36:58;16.20;99.90
16263;DHT22;8239;48.594;8.598;2023-10-19T10:39:28;15.90;99.90
16263;DHT22;8239;48.594;8.598;2023-10-19T10:41:57;15.80;99.90
16263;DHT22;8239;48.594;8.598;2023-10-19T10:44:38;15.60;99.90
16263;DHT22;8239;48.594;8.598;2023-10-19T10:47:07;15.40;99.90
16263;DHT22;8239;48.594;8.598;2023-10-19T10:49:46;15.30;99.90
16263;DHT22;8239;48.594;8.598;2023-10-19T10:52:22;15.20;99.90
16263;DHT22;8239;48.594;8.598;2023-10-19T10:54:49;15.10;99.90
16263;DHT22;8239;48.594;8.598;2023-10-19T10:57:19;15.00;99.90
16263;DHT22;8239;48.594;8.598;2023-10-19T10:59:46;15.00;99.90
16263;DHT22;8239;48.594;8.598;2023-10-19T11:02:17;15.00;99.90
16263;DHT22;8239;48.594;8.598;2023-10-19T11:04:45;15.00;99.90
16263;DHT22;8239;48.594;8.598;2023-10-19T11:07:18;15.10;99.90
16263;DHT22;8239;48.594;8.598;2023-10-19T11:09:45;15.20;99.90
16263;DHT22;8239;48.594;8.598;2023-10-19T11:12:13;15.20;99.90
16263;DHT22;8239;48.594;8.598;2023-10-19T11:14:53;15.20;99.90
16263;DHT22;8239;48.594;8.598;2023-10-19T11:17:20;15.10;99.90
16263;DHT22;8239;48.594;8.598;2023-10-19T11:19:54;15.10;99.90
16263;DHT22;8239;48.594;8.598;2023-10-19T11:22:22;15.00;99.90
16263;DHT22;8239;48.594;8.598;2023-10-19T11:24:52;15.00;99.90
16263;DHT22;8239;48.594;8.598;2023-10-19T11:27:24;15.00;99.90
16263;DHT22;8239;48.594;8.598;2023-10-19T11:29:56;15.00;99.90
16263;DHT22;8239;48.594;8.598;2023-10-19T11:32:23;15.00;99.90
16263;DHT22;8239;48.594;8.598;2023-10-19T11:34:52;15.00;99.90
16263;DHT22;8239;48.594;8.598;2023-10-19T11:37:19;15.00;99.90
16263;DHT22;8239;48.594;8.598;2023-10-19T11:39:46;15.00;99.90
16263;DHT22;8239;48.594;8.598;2023-10-19T11:42:15;15.00;99.90
16263;DHT22;8239;48.594;8.598;2023-10-19T11:44:43;15.00;99.90
16263;DHT22;8239;48.594;8.598;2023-10-19T11:47:12;15.00;99.90
16263;DHT22;8239;48.594;8.598;2023-10-19T11:49:40;15.00;99.90
16263;DHT22;8239;48.594;8.598;2023-10-19T11:52:07;15.00;99.90
16263;DHT22;8239;48.594;8.598;2023-10-19T11:54:34;15.00;99.90
16263;DHT22;8239;48.594;8.598;2023-10-19T11:57:01;15.00;99.90
16263;DHT22;8239;48.594;8.598;2023-10-19T11:59:28;15.00;99.90
16263;DHT22;8239;48.594;8.598;2023-10-19T12:01:55;15.00;99.90
16263;DHT22;8239;48.594;8.598;2023-10-19T12:04:25;15.10;99.90
16263;DHT22;8239;48.594;8.598;2023-10-19T12:06:52;15.10;99.90
16263;DHT22;8239;48.594;8.598;2023-10-19T12:09:20;15.10;99.90
16263;DHT22;8239;48.594;8.598;2023-10-19T12:11:50;15.10;99.90
16263;DHT22;8239;48.594;8.598;2023-10-19T12:14:18;15.10;99.90
16263;DHT22;8239;48.594;8.598;2023-10-19T12:16:46;15.10;99.90
16263;DHT22;8239;48.594;8.598;2023-10-19T12:19:13;15.10;99.90
16263;DHT22;8239;48.594;8.598;2023-10-19T12:21:44;15.10;99.90
16263;DHT22;8239;48.594;8.598;2023-10-19T12:24:11;15.10;99.90
16263;DHT22;8239;48.594;8.598;2023-10-19T12:26:38;15.10;99.90
16263;DHT22;8239;48.594;8.598;2023-10-19T12:29:05;15.00;99.90
16263;DHT22;8239;48.594;8.598;2023-10-19T12:31:35;15.00;99.90
16263;DHT22;8239;48.594;8.598;2023-10-19T12:34:05;14.90;99.90
16263;DHT22;8239;48.594;8.598;2023-10-19T12:36:33;14.90;99.90
16263;DHT22;8239;48.594;8.598;2023-10-19T12:39:02;14.90;99.90
16263;DHT22;8239;48.594;8.598;2023-10-19T12:41:31;14.90;99.90
16263;DHT22;8239;48.594;8.598;2023-10-19T12:43:59;14.90;99.90
16263;DHT22;8239;48.594;8.598;2023-10-19T12:46:28;14.90;99.90
16263;DHT22;8239;48.594;8.598;2023-10-19T12:48:56;14.90;99.90
16263;DHT22;8239;48.594;8.598;2023-10-19T12:51:24;14.90;99.90
16263;DHT22;8239;48.594;8.598;2023-10-19T12:53:52;14.90;99.90
16263;DHT22;8239;48.594;8.598;2023-10-19T12:56:20;15.00;99.90
16263;DHT22;8239;48.594;8.598;2023-10-19T12:58:50;15.00;99.90
16263;DHT22;8239;48.594;8.598;2023-10-19T13:01:17;15.10;99.90
16263;DHT22;8239;48.594;8.598;2023-10-19T13:03:45;15.10;99.90
16263;DHT22;8239;48.594;8.598;2023-10-19T13:06:13;15.10;99.90
16263;DHT22;8239;48.594;8.598;2023-10-19T13:08:40;15.20;99.90
16263;DHT22;8239;48.594;8.598;2023-10-19T13:11:07;15.10;99.90
16263;DHT22;8239;48.594;8.598;2023-10-19T13:13:37;15.10;99.90
16263;DHT22;8239;48.594;8.598;2023-10-19T13:16:05;15.10;99.90
16263;DHT22;8239;48.594;8.598;2023-10-19T13:18:34;15.10;99.90
16263;DHT22;8239;48.594;8.598;2023-10-19T13:21:02;15.10;99.90
16263;DHT22;8239;48.594;8.598;2023-10-19T13:23:31;15.10;99.90
16263;DHT22;8239;48.594;8.598;2023-10-19T13:25:59;15.10;99.90
16263;DHT22;8239;48.594;8.598;2023-10-19T13:28:44;15.10;99.90
16263;DHT22;8239;48.594;8.598;2023-10-19T13:31:11;15.10;99.90
16263;DHT22;8239;48.594;8.598;2023-10-19T13:33:39;15.10;99.90
16263;DHT22;8239;48.594;8.598;2023-10-19T13:36:07;15.10;99.90
16263;DHT22;8239;48.594;8.598;2023-10-19T13:38:34;15.10;99.90
16263;DHT22;8239;48.594;8.598;2023-10-19T13:41:03;15.00;99.90
16263;DHT22;8239;48.594;8.598;2023-10-19T13:43:33;15.00;99.90
16263;DHT22;8239;48.594;8.598;2023-10-19T13:46:01;15.00;99.90
16263;DHT22;8239;48.594;8.598;2023-10-19T13:48:30;15.00;99.90
16263;DHT22;8239;48.594;8.598;2023-10-19T13:50:57;15.00;99.90
16263;DHT22;8239;48.594;8.598;2023-10-19T13:53:31;14.90;99.90
16263;DHT22;8239;48.594;8.598;2023-10-19T13:55:59;14.90;99.90
16263;DHT22;8239;48.594;8.598;2023-10-19T13:58:26;14.90;99.90
16263;DHT22;8239;48.594;8.598;2023-10-19T14:00:53;14.80;99.90
16263;DHT22;8239;48.594;8.598;2023-10-19T14:03:21;14.80;99.90
16263;DHT22;8239;48.594;8.598;2023-10-19T14:05:48;14.80;99.90
16263;DHT22;8239;48.594;8.598;2023-10-19T14:08:17;14.80;99.90
16263;DHT22;8239;48.594;8.598;2023-10-19T14:10:44;14.80;99.90
16263;DHT22;8239;48.594;8.598;2023-10-19T14:13:12;14.80;99.90
16263;DHT22;8239;48.594;8.598;2023-10-19T14:15:41;14.80;99.90
16263;DHT22;8239;48.594;8.598;2023-10-19T14:18:23;14.80;99.90
16263;DHT22;8239;48.594;8.598;2023-10-19T14:21:14;14.90;99.90
16263;DHT22;8239;48.594;8.598;2023-10-19T14:23:42;14.90;99.90
16263;DHT22;8239;48.594;8.598;2023-10-19T14:26:12;14.90;99.90
16263;DHT22;8239;48.594;8.598;2023-10-19T14:28:41;15.00;99.90
16263;DHT22;8239;48.594;8.598;2023-10-19T14:31:09;15.00;99.90
16263;DHT22;8239;48.594;8.598;2023-10-19T14:33:40;15.00;99.90
16263;DHT22;8239;48.594;8.598;2023-10-19T14:36:09;15.00;99.90
16263;DHT22;8239;48.594;8.598;2023-10-19T14:38:36;15.00;99.90
16263;DHT22;8239;48.594;8.598;2023-10-19T14:41:04;15.00;99.90
16263;DHT22;8239;48.594;8.598;2023-10-19T14:43:31;15.00;99.90
16263;DHT22;8239;48.594;8.598;2023-10-19T14:45:59;14.90;99.90
16263;DHT22;8239;48.594;8.598;2023-10-19T14:48:27;14.90;99.90
16263;DHT22;8239;48.594;8.598;2023-10-19T14:50:57;14.90;99.90
16263;DHT22;8239;48.594;8.598;2023-10-19T14:53:25;14.80;99.90
16263;DHT22;8239;48.594;8.598;2023-10-19T14:55:55;14.80;99.90
16263;DHT22;8239;48.594;8.598;2023-10-19T14:58:22;14.80;99.90
16263;DHT22;8239;48.594;8.598;2023-10-19T15:00:51;14.80;99.90
16263;DHT22;8239;48.594;8.598;2023-10-19T15:03:22;14.70;99.90
16263;DHT22;8239;48.594;8.598;2023-10-19T15:05:52;14.70;99.90
16263;DHT22;8239;48.594;8.598;2023-10-19T15:08:22;14.70;99.90
16263;DHT22;8239;48.594;8.598;2023-10-19T15:10:50;14.60;99.90
16263;DHT22;8239;48.594;8.598;2023-10-19T15:13:20;14.60;99.90
16263;DHT22;8239;48.594;8.598;2023-10-19T15:15:47;14.60;99.90
16263;DHT22;8239;48.594;8.598;2023-10-19T15:18:14;14.50;99.90
16263;DHT22;8239;48.594;8.598;2023-10-19T15:20:40;14.50;99.90
16263;DHT22;8239;48.594;8.598;2023-10-19T15:23:08;14.50;99.90
16263;DHT22;8239;48.594;8.598;2023-10-19T15:25:38;14.50;99.90
16263;DHT22;8239;48.594;8.598;2023-10-19T15:28:06;14.40;99.90
16263;DHT22;8239;48.594;8.598;2023-10-19T15:30:34;14.40;99.90
16263;DHT22;8239;48.594;8.598;2023-10-19T15:33:02;14.40;99.90
16263;DHT22;8239;48.594;8.598;2023-10-19T15:35:29;14.30;99.90
16263;DHT22;8239;48.594;8.598;2023-10-19T15:37:56;14.30;99.90
16263;DHT22;8239;48.594;8.598;2023-10-19T15:40:23;14.30;99.90
16263;DHT22;8239;48.594;8.598;2023-10-19T15:42:52;14.20;99.90
16263;DHT22;8239;48.594;8.598;2023-10-19T15:45:20;14.20;99.90
16263;DHT22;8239;48.594;8.598;2023-10-19T15:47:47;14.10;99.90
16263;DHT22;8239;48.594;8.598;2023-10-19T15:50:15;14.10;99.90
16263;DHT22;8239;48.594;8.598;2023-10-19T15:52:43;14.10;99.90
16263;DHT22;8239;48.594;8.598;2023-10-19T15:55:10;14.00;99.90
16263;DHT22;8239;48.594;8.598;2023-10-19T15:57:37;14.00;99.90
16263;DHT22;8239;48.594;8.598;2023-10-19T16:00:09;14.00;99.90
16263;DHT22;8239;48.594;8.598;2023-10-19T16:02:39;13.90;99.90
16263;DHT22;8239;48.594;8.598;2023-10-19T16:05:06;13.90;99.90